Time;durP1;ratioP1;P1;durP2;ratioP2;P2;SDS_P1;SDS_P2;PMS_P1;PMS_P2;Temp;Humidity;BMP_temperature;BMP_pressure;BME280_temperature;BME280_humidity;BME280_pressure;Samples;Min_cycle;Max_cycle;Signal;HPM_P1;HPM_P2
2022/08/08 00:03:45;;;;;;;1999.90;999.90;;;;;;;16.62;51.64;99746.59;10019800;23;20392;-75
2022/08/08 00:08:30;;;;;;;1999.90;999.90;;;;;;;16.64;52.43;99746.56;10025033;23;20029;-75
2022/08/08 00:12:43;;;;;;;;;;;;;;;16.52;54.07;99752.09;9879516;24;20713;-75
2022/08/08 00:17:15;;;;;;;1999.90;999.90;;;;;;;16.33;54.24;99749.88;9875791;24;19934;-75
2022/08/08 00:21:30;;;;;;;1999.90;999.90;;;;;;;16.14;54.86;99752.91;9879175;23;20038;-75
2022/08/08 00:25:51;;;;;;;1999.90;999.90;;;;;;;16.17;52.56;99747.63;9878579;24;20123;-75
2022/08/08 00:29:58;;;;;;;1999.90;999.90;;;;;;;16.24;52.76;99754.47;9856790;24;20578;-75
2022/08/08 00:39:12;;;;;;;1999.90;999.90;;;;;;;16.17;53.05;99747.63;9878303;24;20111;-75
2022/08/08 00:44:02;;;;;;;1999.90;999.90;;;;;;;15.96;53.57;99751.53;9990067;23;20511;-75
2022/08/08 00:48:22;;;;;;;1999.90;999.90;;;;;;;15.75;55.06;99755.47;10019243;23;20658;-75
2022/08/08 00:52:49;;;;;;;1999.90;999.90;;;;;;;15.60;55.99;99742.66;10024067;23;20022;-75
2022/08/08 00:57:13;;;;;;;1999.90;999.90;;;;;;;15.43;57.06;99740.31;10026211;23;20401;-75
2022/08/08 01:01:54;;;;;;;1999.90;999.90;;;;;;;15.20;57.72;99735.50;10019709;23;20038;-75
2022/08/08 01:06:17;;;;;;;1999.90;999.90;;;;;;;15.07;58.65;99736.59;10024046;23;20121;-75
2022/08/08 01:10:40;;;;;;;1999.90;999.90;;;;;;;15.04;58.55;99728.81;10001006;23;20019;-75
2022/08/08 01:15:07;;;;;;;1999.90;999.90;;;;;;;14.99;59.13;99725.44;10025488;23;20105;-75
2022/08/08 01:19:48;;;;;;;1999.90;999.90;;;;;;;14.90;58.57;99721.25;10023716;23;20030;-74
2022/08/08 01:24:12;;;;;;;1999.90;999.90;;;;;;;14.70;59.18;99725.91;10024526;23;20109;-74
2022/08/08 01:28:38;;;;;;;1999.90;999.90;;;;;;;14.57;60.34;99724.38;10023612;23;20054;-74
2022/08/08 01:32:58;;;;;;;1999.90;999.90;;;;;;;14.43;60.56;99727.16;10019802;23;20034;-75
2022/08/08 01:37:22;;;;;;;1999.90;999.90;;;;;;;14.26;61.46;99726.53;10023014;23;20031;-75
2022/08/08 01:42:14;;;;;;;1999.90;999.90;;;;;;;14.10;61.38;99726.75;10022838;23;20343;-75
2022/08/08 01:46:44;;;;;;;1999.90;999.90;;;;;;;13.95;61.76;99733.91;10032146;23;20109;-74
2022/08/08 01:51:24;;;;;;;1999.90;999.90;;;;;;;13.88;62.26;99734.00;10023883;23;20019;-75
2022/08/08 01:56:04;;;;;;;1999.90;999.90;;;;;;;13.80;62.13;99740.16;10023750;23;20037;-75
2022/08/08 02:00:34;;;;;;;1999.90;999.90;;;;;;;13.68;62.49;99735.97;10018166;23;20027;-75
2022/08/08 02:05:16;;;;;;;1999.90;999.90;;;;;;;13.63;63.40;99737.75;10028634;23;20615;-75
2022/08/08 02:09:36;;;;;;;1999.90;999.90;;;;;;;13.55;63.09;99744.81;10006682;23;20022;-75
2022/08/08 02:14:16;;;;;;;1999.90;999.90;;;;;;;13.44;63.71;99742.31;10027064;23;20130;-75
2022/08/08 02:18:38;;;;;;;1999.90;999.90;;;;;;;13.37;64.53;99740.66;10024732;23;20597;-75
2022/08/08 02:22:54;;;;;;;1999.90;999.90;;;;;;;13.27;64.36;99747.69;10029082;23;20034;-75
2022/08/08 02:27:03;;;;;;;1999.90;999.90;;;;;;;13.23;64.89;99743.38;10045686;23;20050;-74
2022/08/08 02:31:43;;;;;;;1999.90;999.90;;;;;;;13.15;64.55;99739.97;10023970;23;20037;-74
2022/08/08 02:36:23;;;;;;;1999.90;999.90;;;;;;;13.06;65.68;99747.00;10027587;23;20086;-74
2022/08/08 02:41:01;;;;;;;1999.90;999.90;;;;;;;13.02;65.92;99749.63;10029330;23;20022;-74
2022/08/08 02:45:42;;;;;;;1999.90;999.90;;;;;;;12.91;65.51;99756.66;10027763;23;20029;-74
2022/08/08 02:50:09;;;;;;;1999.90;999.90;;;;;;;12.86;66.32;99749.78;10029794;23;20108;-74
2022/08/08 02:54:40;;;;;;;1999.90;999.90;;;;;;;12.80;66.46;99742.00;10030164;23;20026;-74
2022/08/08 02:59:21;;;;;;;1999.90;999.90;;;;;;;12.74;66.10;99744.63;10029722;23;20479;-74
2022/08/08 03:04:01;;;;;;;1999.90;999.90;;;;;;;12.68;66.80;99742.97;10025343;23;20038;-74
2022/08/08 03:08:59;;;;;;;1999.90;999.90;;;;;;;12.60;66.59;99745.63;10027655;23;20031;-74
2022/08/08 03:13:23;;;;;;;1999.90;999.90;;;;;;;12.59;67.15;99743.03;10002414;23;20070;-74
2022/08/08 03:17:55;;;;;;;1999.90;999.90;;;;;;;12.50;67.57;99741.34;10021779;23;20038;-74
2022/08/08 03:22:07;;;;;;;1999.90;999.90;;;;;;;12.53;68.27;99743.06;10048347;23;20033;-74
2022/08/08 03:26:36;;;;;;;1999.90;999.90;;;;;;;12.50;67.75;99736.13;10042536;23;20026;-74
2022/08/08 03:30:47;;;;;;;1999.90;999.90;;;;;;;12.40;67.93;99744.91;10035267;23;20034;-74
2022/08/08 03:34:49;;;;;;;1999.90;999.90;;;;;;;12.37;68.62;99734.47;10042016;23;20034;-74
2022/08/08 03:38:51;;;;;;;1999.90;999.90;;;;;;;12.33;68.85;99741.44;10025739;23;20025;-74
2022/08/08 03:43:13;;;;;;;1999.90;999.90;;;;;;;12.26;69.40;99747.56;10005238;23;20027;-74
2022/08/08 03:47:20;;;;;;;1999.90;999.90;;;;;;;12.18;69.25;99746.72;10023091;23;20027;-74
2022/08/08 03:51:23;;;;;;;;;;;;;;;12.15;69.56;99757.16;10026670;23;20046;-74
2022/08/08 03:55:48;;;;;;;1999.90;999.90;;;;;;;12.09;69.91;99747.66;10025247;23;20008;-74
2022/08/08 03:59:57;;;;;;;1999.90;999.90;;;;;;;12.07;70.27;99752.00;10042817;23;20034;-74
2022/08/08 04:04:11;;;;;;;1999.90;999.90;;;;;;;12.02;70.11;99752.88;10024974;23;20052;-75
2022/08/08 04:08:23;;;;;;;1999.90;999.90;;;;;;;12.02;70.15;99758.94;10025749;23;20031;-74
2022/08/08 04:12:35;;;;;;;1999.90;999.90;;;;;;;12.00;70.05;99768.50;10041136;23;20022;-74
2022/08/08 04:16:37;;;;;;;1999.90;999.90;;;;;;;11.96;70.30;99768.53;10020721;23;20401;-75
2022/08/08 04:20:41;;;;;;;1999.90;999.90;;;;;;;11.89;70.48;99772.91;10025962;23;20022;-75
2022/08/08 04:24:43;;;;;;;1999.90;999.90;;;;;;;11.87;70.74;99774.66;10026271;23;20324;-74
2022/08/08 04:28:50;;;;;;;1999.90;999.90;;;;;;;11.84;70.85;99785.03;10002321;23;20019;-75
2022/08/08 04:32:55;;;;;;;1999.90;999.90;;;;;;;11.83;71.71;99785.91;10021068;23;20038;-74
2022/08/08 04:36:56;;;;;;;1999.90;999.90;;;;;;;11.87;71.53;99784.19;10017115;23;20029;-75
2022/08/08 04:40:58;;;;;;;1999.90;999.90;;;;;;;11.90;71.36;99790.25;10001065;23;20023;-75
2022/08/08 04:45:01;;;;;;;1999.90;999.90;;;;;;;11.96;71.13;99790.22;10024505;23;20027;-75
2022/08/08 04:49:02;;;;;;;1999.90;999.90;;;;;;;12.03;71.57;99797.16;10018777;23;20061;-74
2022/08/08 04:53:12;;;;;;;1999.90;999.90;;;;;;;12.12;70.94;99793.63;9996547;23;20133;-75
2022/08/08 04:57:33;;;;;;;1999.90;999.90;;;;;;;12.27;70.69;99803.13;9996043;23;20031;-75
2022/08/08 05:01:35;;;;;;;1999.90;999.90;;;;;;;12.40;70.19;99808.25;10016626;23;20122;-75
2022/08/08 05:05:49;;;;;;;1999.90;999.90;;;;;;;12.56;69.30;99809.03;9996357;23;20019;-75
2022/08/08 05:09:54;;;;;;;1999.90;999.90;;;;;;;12.76;69.70;99811.53;9997353;23;20126;-74
2022/08/08 05:13:55;;;;;;;1999.90;999.90;;;;;;;12.93;69.54;99803.59;10021051;23;20105;-74
2022/08/08 05:18:02;;;;;;;1999.90;999.90;;;;;;;13.13;68.81;99811.25;9991246;23;20110;-75
2022/08/08 05:22:05;;;;;;;1999.90;999.90;;;;;;;13.25;68.43;99812.03;10021375;23;20026;-75
2022/08/08 05:26:07;;;;;;;1999.90;999.90;;;;;;;13.35;67.80;99818.06;10022029;23;20018;-74
2022/08/08 05:30:14;;;;;;;1999.90;999.90;;;;;;;13.46;67.47;99817.94;10018137;23;20482;-75
2022/08/08 05:34:33;;;;;;;1999.90;999.90;;;;;;;13.67;67.62;99820.38;9998043;23;20054;-74
2022/08/08 05:38:45;;;;;;;1999.90;999.90;;;;;;;14.10;67.11;99819.88;10000288;23;20465;-73
2022/08/08 05:42:52;;;;;;;1999.90;999.90;;;;;;;15.12;63.90;99818.50;10024695;23;20107;-74
2022/08/08 05:46:56;;;;;;;1999.90;999.90;;;;;;;15.95;61.41;99815.28;10030989;23;20346;-74
2022/08/08 05:51:05;;;;;;;1999.90;999.90;;;;;;;16.62;59.16;99819.16;10040381;23;20022;-74
2022/08/08 05:55:15;;;;;;;1999.90;999.90;;;;;;;16.96;57.34;99821.91;10002370;23;20031;-74
2022/08/08 05:59:20;;;;;;;1999.90;999.90;;;;;;;17.09;56.95;99819.84;10015296;23;20696;-75
2022/08/08 06:03:46;;;;;;;1999.90;999.90;;;;;;;17.34;56.05;99822.72;10022783;23;20030;-75
2022/08/08 06:07:56;;;;;;;1999.90;999.90;;;;;;;17.82;54.49;99823.28;9977916;23;20075;-74
2022/08/08 06:12:10;;;;;;;1999.90;999.90;;;;;;;18.34;52.73;99830.56;9999315;23;20043;-75
2022/08/08 06:16:19;;;;;;;1999.90;999.90;;;;;;;18.87;51.22;99835.16;10033017;23;20037;-75
2022/08/08 06:20:30;;;;;;;;;;;;;;;19.42;49.92;99846.53;10024973;23;20015;-75
2022/08/08 06:24:33;;;;;;;1999.90;999.90;;;;;;;20.01;48.23;99841.88;10000528;23;20460;-75
2022/08/08 06:28:50;;;;;;;1999.90;999.90;;;;;;;20.52;45.88;99838.28;10023625;23;20034;-75
2022/08/08 06:32:56;;;;;;;1999.90;999.90;;;;;;;20.91;44.95;99843.78;10023609;23;20034;-75
2022/08/08 06:37:02;;;;;;;1999.90;999.90;;;;;;;21.21;44.00;99841.69;10002611;23;20026;-74
2022/08/08 06:41:26;;;;;;;1999.90;999.90;;;;;;;21.71;43.01;99846.66;10006817;23;20049;-76
2022/08/08 06:45:35;;;;;;;1999.90;999.90;;;;;;;22.18;41.48;99841.13;10000747;23;20033;-76
2022/08/08 06:49:37;;;;;;;1999.90;999.90;;;;;;;22.55;39.86;99849.13;10029055;23;20461;-76
2022/08/08 06:53:59;;;;;;;1999.90;999.90;;;;;;;22.99;39.80;99853.31;10028744;23;20022;-75
2022/08/08 06:58:01;;;;;;;1999.90;999.90;;;;;;;23.37;38.78;99843.50;10003540;23;20530;-75
2022/08/08 07:02:05;;;;;;;1999.90;999.90;;;;;;;23.70;36.44;99848.91;10029304;23;20102;-75
2022/08/08 07:06:30;;;;;;;;;;;;;;;23.93;35.72;99856.53;10004557;23;20826;-75
2022/08/08 07:10:37;;;;;;;1999.90;999.90;;;;;;;24.23;35.30;99859.38;10003174;23;19921;-76
2022/08/08 07:15:06;;;;;;;1999.90;999.90;;;;;;;24.58;34.15;99856.66;10029673;23;20026;-76
2022/08/08 07:19:40;;;;;;;1999.90;999.90;;;;;;;24.88;33.62;99862.06;10008084;23;20030;-76
2022/08/08 07:23:59;;;;;;;1999.90;999.90;;;;;;;25.16;32.51;99861.44;10009549;23;20022;-76
2022/08/08 07:28:10;;;;;;;1999.90;999.90;;;;;;;25.37;31.98;99856.69;10028407;23;20054;-76
2022/08/08 07:32:20;;;;;;;1999.90;999.90;;;;;;;25.67;31.09;99865.50;9998916;23;20062;-77
2022/08/08 07:36:23;;;;;;;1999.90;999.90;;;;;;;25.86;30.15;99865.34;10027158;23;20402;-76
2022/08/08 07:40:26;;;;;;;1999.90;999.90;;;;;;;26.22;30.43;99858.72;10027114;23;20023;-76
2022/08/08 07:44:33;;;;;;;1999.90;999.90;;;;;;;26.54;29.43;99862.06;10027549;23;20058;-75
2022/08/08 07:48:43;;;;;;;1999.90;999.90;;;;;;;26.64;28.23;99864.06;10024205;23;20061;-75
2022/08/08 07:52:49;;;;;;;1999.90;999.90;;;;;;;26.81;28.27;99860.34;10001392;23;20026;-75
2022/08/08 07:57:01;;;;;;;1999.90;999.90;;;;;;;27.13;28.51;99870.78;10003442;23;20823;-74
2022/08/08 08:01:06;;;;;;;1999.90;999.90;;;;;;;27.23;27.88;99867.38;10042754;23;20101;-74
2022/08/08 08:05:12;;;;;;;1999.90;999.90;;;;;;;27.42;27.98;99864.38;10027764;23;20054;-73
2022/08/08 08:09:25;;;;;;;1999.90;999.90;;;;;;;27.64;27.57;99866.47;10027152;23;20086;-74
2022/08/08 08:13:35;;;;;;;1999.90;999.90;;;;;;;27.83;27.55;99866.09;10027708;23;20119;-74
2022/08/08 08:17:59;;;;;;;1999.90;999.90;;;;;;;28.00;26.98;99871.13;9996994;23;20122;-74
2022/08/08 08:22:02;;;;;;;1999.90;999.90;;;;;;;28.15;26.61;99869.22;10026969;23;20054;-74
2022/08/08 08:26:08;;;;;;;1999.90;999.90;;;;;;;28.43;26.70;99876.22;10002805;23;20049;-75
2022/08/08 08:30:10;;;;;;;1999.90;999.90;;;;;;;28.62;26.14;99873.94;10024129;23;20025;-74
2022/08/08 08:34:11;;;;;;;1999.90;999.90;;;;;;;28.64;25.72;99879.16;10024686;23;20050;-74
2022/08/08 08:38:13;;;;;;;1999.90;999.90;;;;;;;28.76;26.27;99878.31;10002096;23;20070;-74
2022/08/08 08:42:19;;;;;;;1999.90;999.90;;;;;;;28.83;25.75;99876.88;10026701;23;20668;-74
2022/08/08 08:46:36;;;;;;;1999.90;999.90;;;;;;;28.85;24.91;99873.13;10023260;23;20038;-73
2022/08/08 08:50:40;;;;;;;1999.90;999.90;;;;;;;29.10;25.30;99877.59;10026060;23;20053;-74
2022/08/08 08:54:46;;;;;;;1999.90;999.90;;;;;;;29.16;24.56;99862.91;10025627;23;20023;-73
2022/08/08 08:58:49;;;;;;;1999.90;999.90;;;;;;;29.30;24.32;99873.44;10027131;23;20074;-74
2022/08/08 09:02:53;;;;;;;1999.90;999.90;;;;;;;29.41;24.66;99870.81;10025843;23;20042;-74
2022/08/08 09:06:57;;;;;;;1999.90;999.90;;;;;;;29.51;24.23;99862.13;10026931;23;20059;-74
2022/08/08 09:10:59;;;;;;;1999.90;999.90;;;;;;;29.63;24.79;99862.06;10001912;23;20023;-74
2022/08/08 09:15:01;;;;;;;1999.90;999.90;;;;;;;29.86;24.29;99860.31;10026769;23;20089;-74
2022/08/08 09:19:07;;;;;;;1999.90;999.90;;;;;;;30.05;23.95;99849.91;10025261;23;20039;-74
2022/08/08 09:23:13;;;;;;;1999.90;999.90;;;;;;;30.03;23.15;99856.34;10026052;23;20030;-74
2022/08/08 09:27:25;;;;;;;1999.90;999.90;;;;;;;30.06;23.29;99856.13;9979112;23;20026;-73
2022/08/08 09:31:52;;;;;;;1999.90;999.90;;;;;;;29.96;22.91;99853.25;10020990;23;20034;-73
2022/08/08 09:35:57;;;;;;;1999.90;999.90;;;;;;;30.06;23.20;99850.75;10012603;23;20132;-74
2022/08/08 09:40:07;;;;;;;1999.90;999.90;;;;;;;30.16;22.70;99845.53;10026493;23;20050;-73
2022/08/08 09:44:19;;;;;;;1999.90;999.90;;;;;;;30.28;23.15;99845.44;10026517;23;20027;-74
2022/08/08 09:48:37;;;;;;;1999.90;999.90;;;;;;;30.22;22.86;99847.75;10020028;23;20034;-75
2022/08/08 09:52:51;;;;;;;1999.90;999.90;;;;;;;30.24;23.38;99845.78;10025160;23;20023;-74
2022/08/08 09:57:04;;;;;;;1999.90;999.90;;;;;;;30.36;22.85;99842.16;10025037;23;20101;-75
2022/08/08 10:01:17;;;;;;;;;;;;;;;30.47;22.36;99852.00;10043466;23;20744;-75
2022/08/08 10:05:39;;;;;;;1999.90;999.90;;;;;;;30.40;22.44;99840.94;10024256;23;20190;-75
2022/08/08 10:09:42;;;;;;;1999.90;999.90;;;;;;;30.38;22.40;99837.53;10023140;23;20089;-75
2022/08/08 10:14:03;;;;;;;1999.90;999.90;;;;;;;30.37;22.54;99833.13;10023007;23;20051;-75
2022/08/08 10:18:06;;;;;;;1999.90;999.90;;;;;;;30.49;22.43;99839.31;10024754;23;20065;-74
2022/08/08 10:22:20;;;;;;;1999.90;999.90;;;;;;;30.55;22.42;99831.69;10025373;23;20490;-73
2022/08/08 10:26:27;;;;;;;1999.90;999.90;;;;;;;30.53;22.17;99830.94;10025166;23;20426;-74
2022/08/08 10:30:57;;;;;;;1999.90;999.90;;;;;;;30.61;22.40;99830.31;10019772;23;20102;-75
2022/08/08 10:35:07;;;;;;;1999.90;999.90;;;;;;;30.71;21.70;99820.59;10024526;23;20027;-74
2022/08/08 10:39:23;;;;;;;1999.90;999.90;;;;;;;30.79;21.81;99817.28;10026617;23;20471;-75
2022/08/08 10:43:49;;;;;;;1999.90;999.90;;;;;;;30.87;20.81;99814.81;10025406;23;20395;-74
2022/08/08 10:47:58;;;;;;;1999.90;999.90;;;;;;;30.82;21.91;99825.94;10026063;23;20673;-74
2022/08/08 10:51:59;;;;;;;1999.90;999.90;;;;;;;31.03;21.71;99817.94;10000206;23;20022;-74
2022/08/08 10:56:03;;;;;;;1999.90;999.90;;;;;;;31.05;21.76;99815.13;10000056;23;20054;-74
2022/08/08 11:00:06;;;;;;;1999.90;999.90;;;;;;;31.00;21.50;99817.34;9996938;23;20122;-74
2022/08/08 11:04:08;;;;;;;1999.90;999.90;;;;;;;31.09;21.64;99812.09;9997711;23;20028;-74
2022/08/08 11:08:23;;;;;;;1999.90;999.90;;;;;;;31.16;21.27;99809.75;10025185;23;20019;-74
2022/08/08 11:12:46;;;;;;;1999.90;999.90;;;;;;;31.16;20.98;99829.38;9999522;23;20022;-74
2022/08/08 11:16:48;;;;;;;1999.90;999.90;;;;;;;31.10;20.73;99813.78;10032278;23;20019;-73
2022/08/08 11:20:50;;;;;;;1999.90;999.90;;;;;;;31.15;21.23;99803.53;9977992;23;20219;-73
2022/08/08 11:24:56;;;;;;;1999.90;999.90;;;;;;;31.43;21.10;99809.31;10002730;23;20042;-73
2022/08/08 11:29:01;;;;;;;1999.90;999.90;;;;;;;31.47;20.70;99794.63;10043826;23;20318;-73
2022/08/08 11:33:07;;;;;;;1999.90;999.90;;;;;;;31.62;20.62;99789.81;10022509;23;20027;-72
2022/08/08 11:37:12;;;;;;;1999.90;999.90;;;;;;;31.56;20.39;99791.16;10027940;23;20034;-73
2022/08/08 11:41:17;;;;;;;1999.90;999.90;;;;;;;31.63;20.71;99803.09;10027413;23;20109;-73
2022/08/08 11:45:21;;;;;;;1999.90;999.90;;;;;;;31.64;20.54;99802.13;10024050;23;20098;-73
2022/08/08 11:49:24;;;;;;;1999.90;999.90;;;;;;;31.43;20.76;99793.19;10026712;23;20098;-73
2022/08/08 11:53:29;;;;;;;1999.90;999.90;;;;;;;31.51;20.95;99796.94;10028150;23;20018;-73
2022/08/08 11:57:44;;;;;;;1999.90;999.90;;;;;;;31.54;20.86;99790.44;10028217;23;20085;-73
2022/08/08 12:02:03;;;;;;;1999.90;999.90;;;;;;;31.63;20.80;99794.19;10021439;23;20388;-74
2022/08/08 12:06:24;;;;;;;1999.90;999.90;;;;;;;31.76;20.96;99782.28;10026424;23;20113;-74
2022/08/08 12:10:29;;;;;;;1999.90;999.90;;;;;;;31.91;20.70;99779.25;10001684;23;20018;-75
2022/08/08 12:14:31;;;;;;;1999.90;999.90;;;;;;;32.04;20.63;99774.53;10001902;23;20053;-74
2022/08/08 12:18:49;;;;;;;1999.90;999.90;;;;;;;32.06;19.93;99786.84;9995592;23;20022;-74
2022/08/08 12:22:52;;;;;;;1999.90;999.90;;;;;;;31.94;19.27;99777.16;9996783;23;20019;-74
2022/08/08 12:26:54;;;;;;;1999.90;999.90;;;;;;;31.97;20.37;99762.63;10023771;23;20065;-74
2022/08/08 12:31:05;;;;;;;1999.90;999.90;;;;;;;32.17;20.26;99759.88;9994449;23;20031;-74
2022/08/08 12:35:22;;;;;;;1999.90;999.90;;;;;;;32.30;20.57;99758.81;10024944;23;20058;-74
2022/08/08 12:39:26;;;;;;;1999.90;999.90;;;;;;;32.35;20.60;99754.75;9999171;23;20442;-74
2022/08/08 12:43:49;;;;;;;1999.90;999.90;;;;;;;32.44;20.22;99755.75;10024111;23;20022;-74
2022/08/08 12:48:03;;;;;;;1999.90;999.90;;;;;;;32.33;20.36;99756.72;10018975;23;20042;-76
2022/08/08 12:52:24;;;;;;;1999.90;999.90;;;;;;;32.30;20.36;99743.53;10022911;23;20022;-75
2022/08/08 12:56:37;;;;;;;1999.90;999.90;;;;;;;32.40;20.12;99743.56;10000372;23;20023;-75
2022/08/08 13:00:39;;;;;;;1999.90;999.90;;;;;;;32.24;20.03;99749.44;10019719;23;20050;-75
2022/08/08 13:04:49;;;;;;;1999.90;999.90;;;;;;;32.10;20.63;99747.09;10025373;23;20033;-75
2022/08/08 13:08:51;;;;;;;1999.90;999.90;;;;;;;32.14;19.91;99753.94;10002031;23;20372;-75
2022/08/08 13:13:01;;;;;;;1999.90;999.90;;;;;;;32.04;19.95;99737.75;10001021;23;20026;-75
2022/08/08 13:17:07;;;;;;;1999.90;999.90;;;;;;;31.98;20.29;99738.31;10022322;23;20102;-74
2022/08/08 13:21:30;;;;;;;1999.90;999.90;;;;;;;32.17;20.31;99742.91;10025846;23;20403;-74
2022/08/08 13:25:52;;;;;;;1999.90;999.90;;;;;;;32.20;20.42;99728.34;10004933;23;20459;-74
2022/08/08 13:30:04;;;;;;;1999.90;999.90;;;;;;;32.26;20.52;99727.78;10023114;23;20663;-74
2022/08/08 13:34:06;;;;;;;1999.90;999.90;;;;;;;32.34;20.41;99719.94;10024101;23;20030;-74
2022/08/08 13:38:17;;;;;;;1999.90;999.90;;;;;;;32.36;20.02;99726.03;10027146;23;20788;-74
2022/08/08 13:42:20;;;;;;;1999.90;999.90;;;;;;;32.43;19.93;99719.09;10000121;23;20023;-74
2022/08/08 13:46:21;;;;;;;1999.90;999.90;;;;;;;32.47;20.10;99718.66;9995959;23;20119;-74
2022/08/08 13:50:33;;;;;;;1999.90;999.90;;;;;;;32.53;20.38;99714.59;10026575;23;20688;-74
2022/08/08 13:54:56;;;;;;;1999.90;999.90;;;;;;;32.50;19.86;99714.00;10000013;23;20034;-76
2022/08/08 13:58:58;;;;;;;1999.90;999.90;;;;;;;32.50;19.44;99717.56;10001476;23;20046;-74
2022/08/08 14:03:00;;;;;;;1999.90;999.90;;;;;;;32.47;19.39;99715.13;9993899;23;20045;-75
2022/08/08 14:07:24;;;;;;;1999.90;999.90;;;;;;;32.27;19.21;99714.25;10026753;23;20089;-75
2022/08/08 14:11:32;;;;;;;1999.90;999.90;;;;;;;32.03;18.82;99711.03;10025474;23;20030;-75
2022/08/08 14:15:37;;;;;;;1999.90;999.90;;;;;;;32.14;19.99;99708.25;10021630;23;20037;-74
2022/08/08 14:19:58;;;;;;;1999.90;999.90;;;;;;;32.13;19.18;99698.44;9998635;23;20773;-74
2022/08/08 14:24:07;;;;;;;1999.90;999.90;;;;;;;32.16;19.29;99690.16;9996261;23;20123;-74
2022/08/08 14:28:10;;;;;;;1999.90;999.90;;;;;;;32.38;19.46;99689.09;10000305;23;20381;-74
2022/08/08 14:32:13;;;;;;;1999.90;999.90;;;;;;;32.39;19.24;99694.34;10020153;23;20054;-74
2022/08/08 14:36:39;;;;;;;1999.90;999.90;;;;;;;32.46;18.57;99692.78;10019717;23;20027;-74
2022/08/08 14:40:40;;;;;;;1999.90;999.90;;;;;;;32.48;18.77;99689.94;10022548;23;20050;-74
2022/08/08 14:44:56;;;;;;;1999.90;999.90;;;;;;;32.55;18.87;99684.88;10026599;23;20109;-74
2022/08/08 14:49:08;;;;;;;1999.90;999.90;;;;;;;32.46;18.54;99686.53;10020164;23;20477;-74
2022/08/08 14:53:34;;;;;;;1999.90;999.90;;;;;;;32.44;18.86;99689.38;10025707;23;20030;-74
2022/08/08 14:57:57;;;;;;;1999.90;999.90;;;;;;;32.46;19.35;99687.41;10025306;23;20019;-74
2022/08/08 15:02:11;;;;;;;1999.90;999.90;;;;;;;32.63;18.88;99688.56;10029183;23;20517;-74
2022/08/08 15:06:16;;;;;;;1999.90;999.90;;;;;;;32.76;19.20;99683.75;10025429;23;20090;-75
2022/08/08 15:10:17;;;;;;;1999.90;999.90;;;;;;;32.74;18.73;99691.13;10024357;23;20027;-74
2022/08/08 15:14:20;;;;;;;1999.90;999.90;;;;;;;32.76;18.79;99685.59;10025231;23;20030;-74
2022/08/08 15:18:27;;;;;;;1999.90;999.90;;;;;;;32.79;18.77;99681.78;10023738;23;20791;-74
2022/08/08 15:22:30;;;;;;;1999.90;999.90;;;;;;;32.84;19.07;99680.38;10020663;23;20049;-75
2022/08/08 15:26:32;;;;;;;1999.90;999.90;;;;;;;32.97;19.13;99688.16;10025255;23;20078;-74
2022/08/08 15:30:33;;;;;;;1999.90;999.90;;;;;;;33.07;18.78;99683.66;10018112;23;20018;-74
2022/08/08 15:34:35;;;;;;;1999.90;999.90;;;;;;;33.14;18.42;99678.53;10024293;23;20030;-75
2022/08/08 15:38:39;;;;;;;1999.90;999.90;;;;;;;33.15;18.40;99681.06;10024990;23;20371;-75
2022/08/08 15:42:44;;;;;;;1999.90;999.90;;;;;;;33.13;18.27;99675.00;10024760;23;20516;-75
2022/08/08 15:46:50;;;;;;;1999.90;999.90;;;;;;;33.24;18.91;99680.22;10020099;23;20030;-75
2022/08/08 15:51:01;;;;;;;1999.90;999.90;;;;;;;33.35;18.19;99673.84;10001110;23;20019;-75
2022/08/08 15:55:05;;;;;;;1999.90;999.90;;;;;;;33.25;18.53;99678.38;10001031;23;20033;-75
2022/08/08 15:59:06;;;;;;;1999.90;999.90;;;;;;;33.33;18.14;99678.53;9999878;23;20022;-75
2022/08/08 16:03:09;;;;;;;1999.90;999.90;;;;;;;33.34;18.06;99683.75;10019483;23;20121;-75
2022/08/08 16:07:14;;;;;;;1999.90;999.90;;;;;;;33.40;18.24;99666.19;10024993;23;20026;-75
2022/08/08 16:11:15;;;;;;;1999.90;999.90;;;;;;;33.42;18.43;99671.44;10000121;23;20023;-75
2022/08/08 16:15:37;;;;;;;1999.90;999.90;;;;;;;33.48;18.54;99673.53;10024559;23;20046;-76
2022/08/08 16:19:59;;;;;;;1999.90;999.90;;;;;;;33.44;18.94;99664.06;10024445;23;20046;-75
2022/08/08 16:24:07;;;;;;;1999.90;999.90;;;;;;;33.28;18.52;99668.16;9999940;23;20019;-75
2022/08/08 16:28:11;;;;;;;1999.90;999.90;;;;;;;32.89;18.65;99670.06;10041177;23;20110;-75
2022/08/08 16:32:32;;;;;;;1999.90;999.90;;;;;;;32.23;19.27;99664.41;9998039;23;20033;-74
2022/08/08 16:36:36;;;;;;;1999.90;999.90;;;;;;;31.67;19.89;99656.84;10025457;23;20026;-74
2022/08/08 16:40:37;;;;;;;1999.90;999.90;;;;;;;31.21;20.11;99659.97;10026685;23;20102;-74
2022/08/08 16:44:40;;;;;;;1999.90;999.90;;;;;;;30.86;20.02;99665.59;10000825;23;20569;-74
2022/08/08 16:48:55;;;;;;;1999.90;999.90;;;;;;;30.53;20.37;99670.13;9998054;23;20386;-74
2022/08/08 16:52:58;;;;;;;1999.90;999.90;;;;;;;30.25;21.03;99667.97;10014613;23;20023;-73
2022/08/08 16:57:20;;;;;;;1999.90;999.90;;;;;;;29.91;21.31;99673.34;9998006;23;20113;-74
2022/08/08 17:01:41;;;;;;;1999.90;999.90;;;;;;;29.64;21.55;99668.38;9992219;23;20050;-74
2022/08/08 17:05:43;;;;;;;1999.90;999.90;;;;;;;29.46;21.76;99662.66;9998854;23;20022;-74
2022/08/08 17:09:45;;;;;;;1999.90;999.90;;;;;;;29.31;21.70;99666.47;9999250;23;20038;-73
2022/08/08 17:13:52;;;;;;;1999.90;999.90;;;;;;;29.13;21.79;99667.91;10023005;23;20126;-73
2022/08/08 17:18:02;;;;;;;1999.90;999.90;;;;;;;28.97;21.92;99675.38;10020224;23;20387;-73
2022/08/08 17:22:11;;;;;;;1999.90;999.90;;;;;;;28.81;22.15;99670.31;10038572;23;20023;-73
2022/08/08 17:26:12;;;;;;;1999.90;999.90;;;;;;;28.63;22.46;99661.84;9997856;23;20033;-74
2022/08/08 17:30:29;;;;;;;1999.90;999.90;;;;;;;28.53;22.61;99671.50;10033576;23;20074;-73
2022/08/08 17:34:30;;;;;;;1999.90;999.90;;;;;;;28.42;22.95;99666.13;10023100;23;20656;-72
2022/08/08 17:38:56;;;;;;;1999.90;999.90;;;;;;;28.27;23.61;99674.28;9999028;23;20018;-73
2022/08/08 17:43:05;;;;;;;1999.90;999.90;;;;;;;28.14;23.65;99677.91;10038527;23;20323;-73
2022/08/08 17:47:12;;;;;;;1999.90;999.90;;;;;;;28.00;23.71;99679.75;9970537;23;20046;-73
2022/08/08 17:51:24;;;;;;;1999.90;999.90;;;;;;;27.93;23.39;99686.50;9995957;23;20987;-73
2022/08/08 17:55:28;;;;;;;1999.90;999.90;;;;;;;27.83;24.16;99684.59;10023000;23;20033;-73
2022/08/08 17:59:49;;;;;;;;;;;;;;;27.65;24.89;99689.44;10022027;23;20082;-73
2022/08/08 18:03:58;;;;;;;1999.90;999.90;;;;;;;27.49;24.67;99702.09;10017256;23;20018;-73
2022/08/08 18:08:00;;;;;;;1999.90;999.90;;;;;;;27.44;24.63;99704.22;9996626;23;20053;-73
2022/08/08 18:12:05;;;;;;;1999.90;999.90;;;;;;;27.36;25.15;99707.41;10022187;23;20034;-73
2022/08/08 18:16:14;;;;;;;1999.90;999.90;;;;;;;27.24;24.80;99705.59;10036848;23;20092;-73
2022/08/08 18:20:24;;;;;;;1999.90;999.90;;;;;;;27.16;24.79;99702.59;10022131;23;20086;-73
2022/08/08 18:24:45;;;;;;;1999.90;999.90;;;;;;;27.06;24.95;99705.88;10001181;23;20027;-73
2022/08/08 18:28:50;;;;;;;1999.90;999.90;;;;;;;26.98;25.40;99716.16;10003312;23;20027;-73
2022/08/08 18:32:55;;;;;;;1999.90;999.90;;;;;;;26.88;25.74;99716.88;9998408;23;20601;-73
2022/08/08 18:36:56;;;;;;;1999.90;999.90;;;;;;;26.78;26.26;99719.31;10004387;23;20121;-73
2022/08/08 18:41:00;;;;;;;1999.90;999.90;;;;;;;26.61;29.87;99736.41;10028747;23;20026;-73